Time,TemperatureF,DewpointF,PressureIn,WindDirection,WindDirectionDegrees,WindSpeedMPH,WindSpeedGustMPH,Humidity,HourlyPrecipIn,Conditions,Clouds,dailyrainin,SoftwareType,DateUTC
2013-02-12 00:00:00,31.6,31.4,29.67,SW,229,0.0,0.0,99,0.00,,,0.07,Wunderground v.1.15,2013-02-12 05:00:00,
2013-02-12 00:05:00,31.6,31.4,29.67,SW,229,0.0,0.0,99,0.00,,,0.00,Wunderground v.1.15,2013-02-12 05:05:00,
2013-02-12 00:10:00,31.6,31.4,29.66,SW,229,0.0,0.0,99,0.00,,,0.00,Wunderground v.1.15,2013-02-12 05:10:00,
2013-02-12 00:15:00,31.6,31.4,29.67,SW,229,0.0,0.0,99,0.00,,,0.00,Wunderground v.1.15,2013-02-12 05:15:00,
2013-02-12 00:20:00,31.6,31.4,29.67,SW,229,0.0,0.0,99,0.00,,,0.00,Wunderground v.1.15,2013-02-12 05:20:00,
2013-02-12 00:25:00,31.6,31.4,29.68,SW,229,0.0,0.0,99,0.00,,,0.00,Wunderground v.1.15,2013-02-12 05:25:00,
2013-02-12 00:30:00,31.5,31.3,29.67,SW,229,0.0,0.0,99,0.00,,,0.00,Wunderground v.1.15,2013-02-12 05:30:00,
2013-02-12 00:35:00,31.3,31.1,29.68,SW,228,0.0,0.0,99,0.00,,,0.00,Wunderground v.1.15,2013-02-12 05:35:00,
2013-02-12 00:45:00,31.2,31.0,29.68,SW,232,0.0,1.0,99,0.00,,,0.00,Wunderground v.1.15,2013-02-12 05:45:00,
2013-02-12 00:50:00,31.2,31.0,29.69,SW,232,0.0,0.0,99,0.00,,,0.00,Wunderground v.1.15,2013-02-12 05:50:00,
2013-02-12 00:55:00,31.2,31.0,29.68,SW,232,0.0,0.0,99,0.00,,,0.00,Wunderground v.1.15,2013-02-12 05:55:00,
2013-02-12 01:05:00,31.2,31.0,29.69,SW,232,0.0,0.0,99,0.00,,,0.00,Wunderground v.1.15,2013-02-12 06:05:00,
2013-02-12 01:10:00,31.2,31.0,29.68,SW,232,0.0,0.0,99,0.00,,,0.00,Wunderground v.1.15,2013-02-12 06:10:00,
2013-02-12 01:20:00,31.2,31.0,29.68,SW,232,0.0,0.0,99,0.00,,,0.00,Wunderground v.1.15,2013-02-12 06:20:00,
2013-02-12 01:25:00,31.2,31.0,29.68,SSW,207,0.0,0.0,99,0.00,,,0.00,Wunderground v.1.15,2013-02-12 06:25:00,
2013-02-12 01:30:00,31.2,31.0,29.68,SSW,207,0.0,0.0,99,0.00,,,0.00,Wunderground v.1.15,2013-02-12 06:30:00,
2013-02-12 01:35:00,31.2,31.0,29.68,SSW,207,0.0,0.0,99,0.00,,,0.00,Wunderground v.1.15,2013-02-12 06:35:00,
2013-02-12 01:45:00,31.2,31.0,29.68,SSW,207,0.0,0.0,99,0.00,,,0.00,Wunderground v.1.15,2013-02-12 06:45:00,
2013-02-12 01:50:00,31.0,30.8,29.68,SSW,207,0.0,0.0,99,0.00,,,0.00,Wunderground v.1.15,2013-02-12 06:50:00,
2013-02-12 01:55:00,31.0,30.8,29.68,SSW,207,0.0,0.0,99,0.00,,,0.00,Wunderground v.1.15,2013-02-12 06:55:00,
2013-02-12 02:05:00,30.7,30.5,29.68,SSW,196,0.0,0.0,99,0.00,,,0.00,Wunderground v.1.15,2013-02-12 07:05:00,
2013-02-12 02:10:00,30.6,30.4,29.68,SSW,196,0.0,0.0,99,0.00,,,0.00,Wunderground v.1.15,2013-02-12 07:10:00,
2013-02-12 02:15:00,30.6,30.4,29.68,SSW,196,0.0,0.0,99,0.00,,,0.00,Wunderground v.1.15,2013-02-12 07:15:00,
2013-02-12 02:25:00,30.6,30.4,29.68,SSW,196,0.0,0.0,99,0.00,,,0.00,Wunderground v.1.15,2013-02-12 07:25:00,
2013-02-12 02:30:00,30.6,30.4,29.68,SSW,196,0.0,0.0,99,0.00,,,0.00,Wunderground v.1.15,2013-02-12 07:30:00,
2013-02-12 02:35:00,30.6,30.4,29.68,SSW,196,0.0,0.0,99,0.00,,,0.00,Wunderground v.1.15,2013-02-12 07:35:00,
2013-02-12 02:45:00,30.6,30.4,29.69,SSW,196,0.0,0.0,99,0.00,,,0.00,Wunderground v.1.15,2013-02-12 07:45:00,
2013-02-12 02:50:00,30.6,30.4,29.69,SSW,196,0.0,0.0,99,0.00,,,0.00,Wunderground v.1.15,2013-02-12 07:50:00,
2013-02-12 02:55:00,30.6,30.4,29.69,SSW,196,0.0,0.0,99,0.00,,,0.00,Wunderground v.1.15,2013-02-12 07:55:00,
2013-02-12 03:00:00,30.7,30.5,29.69,SSW,196,0.0,0.0,99,0.00,,,0.00,Wunderground v.1.15,2013-02-12 08:00:00,
2013-02-12 03:10:00,30.7,30.5,29.68,SSW,196,0.0,0.0,99,0.00,,,0.00,Wunderground v.1.15,2013-02-12 08:10:00,
2013-02-12 03:15:00,30.9,30.7,29.68,SSW,196,0.0,0.0,99,0.00,,,0.00,Wunderground v.1.15,2013-02-12 08:15:00,
2013-02-12 03:25:00,30.9,30.7,29.68,SSW,196,0.0,0.0,99,0.00,,,0.00,Wunderground v.1.15,2013-02-12 08:25:00,
2013-02-12 03:30:00,30.9,30.7,29.67,SSW,196,0.0,0.0,99,0.00,,,0.00,Wunderground v.1.15,2013-02-12 08:30:00,
2013-02-12 03:35:00,30.9,30.7,29.68,SSW,196,0.0,0.0,99,0.00,,,0.00,Wunderground v.1.15,2013-02-12 08:35:00,
2013-02-12 03:45:00,30.9,30.7,29.68,SSW,196,0.0,0.0,99,0.00,,,0.00,Wunderground v.1.15,2013-02-12 08:45:00,
2013-02-12 03:50:00,30.9,30.7,29.68,SSW,196,0.0,0.0,99,0.00,,,0.00,Wunderground v.1.15,2013-02-12 08:50:00,
2013-02-12 03:55:00,30.9,30.7,29.68,SSW,196,0.0,0.0,99,0.00,,,0.00,Wunderground v.1.15,2013-02-12 08:55:00,
2013-02-12 04:00:00,30.9,30.7,29.68,SSW,196,0.0,0.0,99,0.00,,,0.00,Wunderground v.1.15,2013-02-12 09:00:00,
2013-02-12 04:10:00,30.7,30.5,29.69,SSW,196,0.0,0.0,99,0.00,,,0.00,Wunderground v.1.15,2013-02-12 09:10:00,
2013-02-12 04:20:00,30.7,30.5,29.69,SSW,196,0.0,0.0,99,0.00,,,0.00,Wunderground v.1.15,2013-02-12 09:20:00,
2013-02-12 04:25:00,30.7,30.5,29.69,SSW,196,0.0,1.0,99,0.00,,,0.00,Wunderground v.1.15,2013-02-12 09:25:00,
2013-02-12 04:30:00,30.9,30.7,29.69,SSW,196,0.0,0.0,99,0.00,,,0.00,Wunderground v.1.15,2013-02-12 09:30:00,
2013-02-12 04:35:00,30.9,30.7,29.69,SSW,196,0.0,0.0,99,0.00,,,0.00,Wunderground v.1.15,2013-02-12 09:35:00,
2013-02-12 04:45:00,30.9,30.7,29.69,SSW,196,0.0,1.0,99,0.00,,,0.00,Wunderground v.1.15,2013-02-12 09:45:00,
2013-02-12 04:50:00,30.9,30.7,29.69,NE,50,0.0,0.0,99,0.00,,,0.00,Wunderground v.1.15,2013-02-12 09:50:00,
2013-02-12 04:55:00,30.9,30.7,29.69,NE,50,0.0,0.0,99,0.00,,,0.00,Wunderground v.1.15,2013-02-12 09:55:00,
2013-02-12 05:05:00,30.9,30.7,29.69,NE,50,0.0,0.0,99,0.00,,,0.00,Wunderground v.1.15,2013-02-12 10:05:00,
2013-02-12 05:10:00,30.9,30.7,29.69,NE,52,0.0,0.0,99,0.00,,,0.00,Wunderground v.1.15,2013-02-12 10:10:00,
2013-02-12 05:20:00,31.0,30.8,29.69,South,186,0.0,0.0,99,0.00,,,0.00,Wunderground v.1.15,2013-02-12 10:20:00,
2013-02-12 05:25:00,31.0,30.8,29.69,WSW,248,0.0,0.0,99,0.00,,,0.00,Wunderground v.1.15,2013-02-12 10:25:00,
2013-02-12 05:30:00,31.0,30.8,29.69,WSW,248,0.0,0.0,99,0.00,,,0.00,Wunderground v.1.15,2013-02-12 10:30:00,
2013-02-12 05:40:00,31.0,30.8,29.69,WSW,248,0.0,0.0,99,0.00,,,0.00,Wunderground v.1.15,2013-02-12 10:40:00,
2013-02-12 05:45:00,31.0,30.8,29.70,WSW,248,0.0,0.0,99,0.00,,,0.00,Wunderground v.1.15,2013-02-12 10:45:00,
2013-02-12 05:50:00,31.0,30.8,29.70,South,184,1.0,1.0,99,0.00,,,0.00,Wunderground v.1.15,2013-02-12 10:50:00,
2013-02-12 05:55:00,31.0,30.8,29.70,South,176,1.0,1.0,99,0.00,,,0.00,Wunderground v.1.15,2013-02-12 10:55:00,
2013-02-12 06:05:00,31.2,31.0,29.70,SSW,196,0.0,3.0,99,0.00,,,0.00,Wunderground v.1.15,2013-02-12 11:05:00,
2013-02-12 06:10:00,31.2,31.0,29.70,SSW,196,0.0,0.0,99,0.00,,,0.00,Wunderground v.1.15,2013-02-12 11:10:00,
2013-02-12 06:20:00,31.3,31.1,29.70,SE,143,1.0,1.0,99,0.00,,,0.00,Wunderground v.1.15,2013-02-12 11:20:00,
2013-02-12 06:25:00,31.3,31.1,29.70,SE,143,0.0,1.0,99,0.00,,,0.00,Wunderground v.1.15,2013-02-12 11:25:00,
2013-02-12 06:30:00,31.3,31.1,29.70,SE,144,0.0,3.0,99,0.00,,,0.00,Wunderground v.1.15,2013-02-12 11:30:00,
2013-02-12 06:35:00,31.2,31.0,29.71,SE,144,0.0,3.0,99,0.00,,,0.00,Wunderground v.1.15,2013-02-12 11:35:00,
2013-02-12 06:45:00,31.2,31.0,29.71,East,94,1.0,1.0,99,0.00,,,0.00,Wunderground v.1.15,2013-02-12 11:45:00,
2013-02-12 06:50:00,31.2,31.0,29.70,ESE,105,0.0,0.0,99,0.00,,,0.00,Wunderground v.1.15,2013-02-12 11:50:00,
2013-02-12 06:55:00,31.2,31.0,29.70,South,190,0.0,3.0,99,0.00,,,0.00,Wunderground v.1.15,2013-02-12 11:55:00,
2013-02-12 07:00:00,31.2,31.0,29.70,South,190,0.0,0.0,99,0.00,,,0.00,Wunderground v.1.15,2013-02-12 12:00:00,
2013-02-12 07:10:00,31.2,31.0,29.71,South,190,1.0,1.0,99,0.00,,,0.00,Wunderground v.1.15,2013-02-12 12:10:00,
2013-02-12 07:15:00,31.3,31.1,29.70,South,190,1.0,1.0,99,0.00,,,0.00,Wunderground v.1.15,2013-02-12 12:15:00,
2013-02-12 07:25:00,31.3,31.1,29.71,South,190,0.0,0.0,99,0.00,,,0.00,Wunderground v.1.15,2013-02-12 12:25:00,
2013-02-12 07:30:00,31.3,31.1,29.71,South,190,0.0,0.0,99,0.00,,,0.00,Wunderground v.1.15,2013-02-12 12:30:00,
2013-02-12 07:35:00,31.3,31.1,29.71,South,190,0.0,0.0,99,0.00,,,0.00,Wunderground v.1.15,2013-02-12 12:35:00,
2013-02-12 07:45:00,31.3,31.1,29.71,South,190,0.0,0.0,99,0.00,,,0.00,Wunderground v.1.15,2013-02-12 12:45:00,
2013-02-12 07:50:00,31.5,31.3,29.71,SSE,161,1.0,1.0,99,0.00,,,0.00,Wunderground v.1.15,2013-02-12 12:50:00,
2013-02-12 07:55:00,31.5,31.3,29.72,SSE,161,1.0,1.0,99,0.00,,,0.00,Wunderground v.1.15,2013-02-12 12:55:00,
2013-02-12 08:00:00,31.6,31.4,29.71,SSE,161,0.0,1.0,99,0.00,,,0.00,Wunderground v.1.15,2013-02-12 13:00:00,
2013-02-12 08:10:00,31.6,31.4,29.72,SSE,156,0.0,0.0,99,0.00,,,0.00,Wunderground v.1.15,2013-02-12 13:10:00,
2013-02-12 08:15:00,31.8,31.6,29.72,South,170,0.0,1.0,99,0.00,,,0.00,Wunderground v.1.15,2013-02-12 13:15:00,
2013-02-12 08:25:00,31.9,31.7,29.71,SW,214,1.0,2.0,99,0.00,,,0.00,Wunderground v.1.15,2013-02-12 13:25:00,
2013-02-12 08:30:00,31.9,31.7,29.71,SW,214,1.0,1.0,99,0.00,,,0.00,Wunderground v.1.15,2013-02-12 13:30:00,
2013-02-12 08:35:00,32.1,31.9,29.71,SSW,198,0.0,1.0,99,0.00,,,0.00,Wunderground v.1.15,2013-02-12 13:35:00,
2013-02-12 08:45:00,32.1,31.9,29.71,ESE,109,1.0,1.0,99,0.00,,,0.00,Wunderground v.1.15,2013-02-12 13:45:00,
2013-02-12 08:50:00,32.2,32.0,29.71,SE,124,1.0,1.0,99,0.00,,,0.00,Wunderground v.1.15,2013-02-12 13:50:00,
2013-02-12 08:55:00,32.2,32.0,29.71,SSE,156,1.0,1.0,99,0.00,,,0.00,Wunderground v.1.15,2013-02-12 13:55:00,
2013-02-12 09:00:00,32.4,32.2,29.72,WSW,257,1.0,2.0,99,0.00,,,0.00,Wunderground v.1.15,2013-02-12 14:00:00,
2013-02-12 09:10:00,32.4,32.2,29.72,NW,323,1.0,4.0,99,0.00,,,0.00,Wunderground v.1.15,2013-02-12 14:10:00,
2013-02-12 09:15:00,32.5,32.3,29.72,NNW,344,0.0,4.0,99,0.00,,,0.00,Wunderground v.1.15,2013-02-12 14:15:00,
2013-02-12 09:25:00,32.7,31.7,29.73,SW,217,1.0,1.0,96,0.00,,,0.00,Wunderground v.1.15,2013-02-12 14:25:00,
2013-02-12 09:30:00,32.9,31.4,29.73,SW,221,2.0,2.0,94,0.00,,,0.00,Wunderground v.1.15,2013-02-12 14:30:00,
2013-02-12 09:35:00,33.1,31.6,29.73,NW,304,2.0,2.0,94,0.00,,,0.00,Wunderground v.1.15,2013-02-12 14:35:00,
2013-02-12 09:40:00,33.2,31.4,29.73,South,184,2.0,6.0,93,0.00,,,0.00,Wunderground v.1.15,2013-02-12 14:40:00,
2013-02-12 09:50:00,33.4,31.6,29.73,SSW,207,2.0,2.0,93,0.00,,,0.00,Wunderground v.1.15,2013-02-12 14:50:00,
2013-02-12 09:55:00,33.5,31.4,29.73,SSW,209,2.0,7.0,92,0.00,,,0.00,Wunderground v.1.15,2013-02-12 14:55:00,
2013-02-12 10:00:00,33.7,31.4,29.73,ESE,103,2.0,2.0,91,0.00,,,0.00,Wunderground v.1.15,2013-02-12 15:00:00,
2013-02-12 10:10:00,33.8,31.7,29.73,WNW,299,1.0,1.0,92,0.00,,,0.00,Wunderground v.1.15,2013-02-12 15:10:00,
2013-02-12 10:15:00,33.8,31.5,29.74,South,179,2.0,2.0,91,0.00,,,0.00,Wunderground v.1.15,2013-02-12 15:15:00,
2013-02-12 10:20:00,33.8,31.5,29.74,SSW,213,3.0,4.0,91,0.00,,,0.01,Wunderground v.1.15,2013-02-12 15:20:00,
2013-02-12 10:30:00,34.1,32.0,29.74,WNW,282,2.0,2.0,92,0.00,,,0.01,Wunderground v.1.15,2013-02-12 15:30:00,
2013-02-12 10:35:00,34.3,32.2,29.74,South,186,2.0,2.0,92,0.00,,,0.01,Wunderground v.1.15,2013-02-12 15:35:00,
2013-02-12 10:45:00,34.3,32.5,29.73,SW,219,2.0,2.0,93,0.00,,,0.02,Wunderground v.1.15,2013-02-12 15:45:00,
2013-02-12 10:50:00,34.7,32.6,29.73,SSW,192,2.0,2.0,92,0.00,,,0.02,Wunderground v.1.15,2013-02-12 15:50:00,
2013-02-12 10:55:00,35.2,33.4,29.74,South,182,1.0,2.0,93,0.00,,,0.02,Wunderground v.1.15,2013-02-12 15:55:00,
2013-02-12 11:00:00,35.5,33.1,29.74,NNW,329,1.0,1.0,91,0.04,,,0.03,Wunderground v.1.15,2013-02-12 16:00:00,
2013-02-12 11:10:00,35.0,32.9,29.75,SW,222,2.0,2.0,92,0.04,,,0.03,Wunderground v.1.15,2013-02-12 16:10:00,
2013-02-12 11:15:00,34.9,32.0,29.75,SSE,167,1.0,2.0,89,0.04,,,0.03,Wunderground v.1.15,2013-02-12 16:15:00,
2013-02-12 11:25:00,34.6,32.5,29.75,South,171,2.0,2.0,92,0.04,,,0.04,Wunderground v.1.15,2013-02-12 16:25:00,
2013-02-12 11:30:00,34.4,32.3,29.75,SSE,160,2.0,2.0,92,0.04,,,0.04,Wunderground v.1.15,2013-02-12 16:30:00,
2013-02-12 11:35:00,34.4,32.6,29.75,SSE,164,1.0,2.0,93,0.04,,,0.05,Wunderground v.1.15,2013-02-12 16:35:00,
2013-02-12 11:45:00,34.3,32.8,29.74,SSE,164,1.0,2.0,94,0.04,,,0.05,Wunderground v.1.15,2013-02-12 16:45:00,
2013-02-12 11:50:00,34.3,32.8,29.74,SW,234,1.0,1.0,94,0.00,,,0.05,Wunderground v.1.15,2013-02-12 16:50:00,
2013-02-12 11:55:00,34.3,33.0,29.74,WSW,257,1.0,6.0,95,0.00,,,0.05,Wunderground v.1.15,2013-02-12 16:55:00,
2013-02-12 12:00:00,34.1,32.8,29.74,South,186,2.0,2.0,95,0.00,,,0.05,Wunderground v.1.15,2013-02-12 17:00:00,
2013-02-12 12:10:00,34.4,32.9,29.73,SW,220,2.0,2.0,94,0.00,,,0.06,Wunderground v.1.15,2013-02-12 17:10:00,
2013-02-12 12:15:00,34.6,32.8,29.74,SSW,196,2.0,2.0,93,0.04,,,0.06,Wunderground v.1.15,2013-02-12 17:15:00,
2013-02-12 12:25:00,34.9,32.5,29.74,South,187,2.0,7.0,91,0.04,,,0.07,Wunderground v.1.15,2013-02-12 17:25:00,
2013-02-12 12:30:00,34.9,32.5,29.74,SSW,205,2.0,3.0,91,0.05,,,0.08,Wunderground v.1.15,2013-02-12 17:30:00,
2013-02-12 12:35:00,34.9,32.3,29.74,SW,221,2.0,3.0,90,0.05,,,0.08,Wunderground v.1.15,2013-02-12 17:35:00,
2013-02-12 12:45:00,35.3,32.4,29.74,SSW,210,2.0,2.0,89,0.05,,,0.09,Wunderground v.1.15,2013-02-12 17:45:00,
2013-02-12 12:50:00,35.3,31.8,29.74,SE,142,1.0,1.0,87,0.05,,,0.09,Wunderground v.1.15,2013-02-12 17:50:00,
2013-02-12 12:55:00,35.3,32.4,29.74,SE,132,1.0,1.0,89,0.04,,,0.10,Wunderground v.1.15,2013-02-12 17:55:00,
2013-02-12 13:00:00,35.3,31.5,29.74,SSW,201,2.0,5.0,86,0.04,,,0.10,Wunderground v.1.15,2013-02-12 18:00:00,
2013-02-12 13:10:00,35.0,32.4,29.75,SSW,199,2.0,2.0,90,0.05,,,0.11,Wunderground v.1.15,2013-02-12 18:10:00,
2013-02-12 13:15:00,34.7,31.8,29.75,South,176,2.0,2.0,89,0.05,,,0.11,Wunderground v.1.15,2013-02-12 18:15:00,
2013-02-12 13:20:00,34.6,32.2,29.75,South,184,2.0,2.0,91,0.04,,,0.11,Wunderground v.1.15,2013-02-12 18:20:00,
2013-02-12 13:30:00,34.4,31.2,29.76,ESE,106,2.0,2.0,88,0.04,,,0.12,Wunderground v.1.15,2013-02-12 18:30:00,
2013-02-12 13:35:00,34.4,31.8,29.76,South,184,2.0,2.0,90,0.04,,,0.12,Wunderground v.1.15,2013-02-12 18:35:00,
2013-02-12 13:40:00,34.4,32.0,29.76,South,186,1.0,1.0,91,0.00,,,0.12,Wunderground v.1.15,2013-02-12 18:40:00,
2013-02-12 13:50:00,34.3,32.2,29.76,SW,219,1.0,1.0,92,0.00,,,0.13,Wunderground v.1.15,2013-02-12 18:50:00,
2013-02-12 13:55:00,34.1,32.0,29.76,South,186,1.0,1.0,92,0.00,,,0.13,Wunderground v.1.15,2013-02-12 18:55:00,
2013-02-12 14:00:00,34.1,32.0,29.76,South,186,1.0,1.0,92,0.00,,,0.13,Wunderground v.1.15,2013-02-12 19:00:00,
2013-02-12 14:10:00,34.0,31.9,29.76,SW,235,1.0,3.0,92,0.00,,,0.13,Wunderground v.1.15,2013-02-12 19:10:00,
2013-02-12 14:15:00,34.1,31.5,29.76,SSW,198,2.0,3.0,90,0.00,,,0.14,Wunderground v.1.15,2013-02-12 19:15:00,
2013-02-12 14:20:00,34.3,31.4,29.76,SW,222,2.0,2.0,89,0.00,,,0.14,Wunderground v.1.15,2013-02-12 19:20:00,
2013-02-12 14:30:00,34.4,31.2,29.77,SW,220,1.0,6.0,88,0.00,,,0.14,Wunderground v.1.15,2013-02-12 19:30:00,
2013-02-12 14:35:00,34.6,31.7,29.77,ENE,78,2.0,6.0,89,0.00,,,0.15,Wunderground v.1.15,2013-02-12 19:35:00,
2013-02-12 14:40:00,34.6,31.4,29.77,ESE,123,1.0,1.0,88,0.00,,,0.15,Wunderground v.1.15,2013-02-12 19:40:00,
2013-02-12 14:50:00,34.7,31.2,29.77,SSW,206,1.0,4.0,87,0.00,,,0.15,Wunderground v.1.15,2013-02-12 19:50:00,
2013-02-12 14:55:00,34.9,30.6,29.78,SSW,198,2.0,4.0,84,0.00,,,0.15,Wunderground v.1.15,2013-02-12 19:55:00,
2013-02-12 15:00:00,35.3,30.4,29.78,SE,139,2.0,2.0,82,0.00,,,0.15,Wunderground v.1.15,2013-02-12 20:00:00,
2013-02-12 15:10:00,35.6,30.9,29.79,SSW,205,1.0,3.0,83,0.00,,,0.16,Wunderground v.1.15,2013-02-12 20:10:00,
2013-02-12 15:15:00,35.5,30.8,29.78,SE,132,1.0,3.0,83,0.00,,,0.16,Wunderground v.1.15,2013-02-12 20:15:00,
2013-02-12 15:20:00,35.5,31.4,29.78,SE,134,1.0,1.0,85,0.00,,,0.16,Wunderground v.1.15,2013-02-12 20:20:00,
2013-02-12 15:30:00,35.2,30.6,29.78,ESE,112,1.0,1.0,83,0.00,,,0.17,Wunderground v.1.15,2013-02-12 20:30:00,
2013-02-12 15:35:00,35.0,30.7,29.78,East,98,1.0,1.0,84,0.00,,,0.17,Wunderground v.1.15,2013-02-12 20:35:00,
2013-02-12 15:40:00,35.0,30.9,29.79,South,178,1.0,2.0,85,0.00,,,0.17,Wunderground v.1.15,2013-02-12 20:40:00,
2013-02-12 15:50:00,34.7,30.4,29.78,SE,140,1.0,1.0,84,0.00,,,0.18,Wunderground v.1.15,2013-02-12 20:50:00,
2013-02-12 15:55:00,34.9,29.7,29.78,SSW,208,1.0,2.0,81,0.00,,,0.18,Wunderground v.1.15,2013-02-12 20:55:00,
2013-02-12 16:00:00,35.3,28.8,29.78,SSW,202,2.0,2.0,77,0.00,,,0.18,Wunderground v.1.15,2013-02-12 21:00:00,
2013-02-12 16:10:00,35.3,30.9,29.78,SSE,150,2.0,2.0,84,0.00,,,0.18,Wunderground v.1.15,2013-02-12 21:10:00,
2013-02-12 16:15:00,35.0,30.4,29.78,SSW,210,2.0,2.0,83,0.00,,,0.18,Wunderground v.1.15,2013-02-12 21:15:00,
2013-02-12 16:20:00,35.2,30.0,29.78,SE,130,1.0,1.0,81,0.00,,,0.18,Wunderground v.1.15,2013-02-12 21:20:00,
2013-02-12 16:30:00,35.6,29.7,29.79,West,262,1.0,1.0,79,0.00,,,0.19,Wunderground v.1.15,2013-02-12 21:30:00,
2013-02-12 16:35:00,35.6,30.0,29.79,East,96,1.0,2.0,80,0.00,,,0.19,Wunderground v.1.15,2013-02-12 21:35:00,
2013-02-12 16:40:00,35.3,29.7,29.80,SSW,208,2.0,3.0,80,0.00,,,0.19,Wunderground v.1.15,2013-02-12 21:40:00,
2013-02-12 16:50:00,34.9,30.6,29.80,SW,234,1.0,1.0,84,0.00,,,0.19,Wunderground v.1.15,2013-02-12 21:50:00,
2013-02-12 16:55:00,34.6,30.6,29.80,SSW,203,1.0,1.0,85,0.00,,,0.19,Wunderground v.1.15,2013-02-12 21:55:00,
2013-02-12 17:05:00,34.3,29.1,29.79,SSW,207,1.0,5.0,81,0.00,,,0.20,Wunderground v.1.15,2013-02-12 22:05:00,
2013-02-12 17:10:00,34.4,28.2,29.79,ESE,120,2.0,2.0,78,0.00,,,0.20,Wunderground v.1.15,2013-02-12 22:10:00,
2013-02-12 17:20:00,34.7,27.9,29.79,South,175,1.0,1.0,76,0.00,,,0.20,Wunderground v.1.15,2013-02-12 22:20:00,
2013-02-12 17:25:00,34.9,28.7,29.79,SSE,152,1.0,1.0,78,0.00,,,0.20,Wunderground v.1.15,2013-02-12 22:25:00,
2013-02-12 17:35:00,34.6,29.4,29.79,NNE,23,1.0,5.0,81,0.00,,,0.20,Wunderground v.1.15,2013-02-12 22:35:00,
2013-02-12 17:40:00,34.4,29.5,29.79,NNE,20,1.0,1.0,82,0.00,,,0.20,Wunderground v.1.15,2013-02-12 22:40:00,
2013-02-12 17:45:00,34.1,29.5,29.79,SSW,205,1.0,1.0,83,0.00,,,0.20,Wunderground v.1.15,2013-02-12 22:45:00,
2013-02-12 17:50:00,33.8,29.8,29.79,SSW,205,1.0,1.0,85,0.00,,,0.21,Wunderground v.1.15,2013-02-12 22:50:00,
2013-02-12 18:00:00,33.4,29.4,29.79,WNW,302,0.0,0.0,85,0.00,,,0.21,Wunderground v.1.15,2013-02-12 23:00:00,
2013-02-12 18:05:00,33.1,29.1,29.79,West,265,1.0,1.0,85,0.00,,,0.21,Wunderground v.1.15,2013-02-12 23:05:00,
2013-02-12 18:10:00,33.1,29.4,29.80,SSW,194,1.0,4.0,86,0.00,,,0.21,Wunderground v.1.15,2013-02-12 23:10:00,
2013-02-12 18:20:00,32.9,29.2,29.81,SE,145,1.0,1.0,86,0.00,,,0.21,Wunderground v.1.15,2013-02-12 23:20:00,
2013-02-12 18:25:00,32.9,29.7,29.82,SE,132,1.0,1.0,88,0.00,,,0.21,Wunderground v.1.15,2013-02-12 23:25:00,
2013-02-12 18:30:00,32.8,29.6,29.82,SE,133,1.0,3.0,88,0.00,,,0.21,Wunderground v.1.15,2013-02-12 23:30:00,
2013-02-12 18:40:00,32.7,29.5,29.82,SE,133,0.0,0.0,88,0.00,,,0.21,Wunderground v.1.15,2013-02-12 23:40:00,
2013-02-12 18:45:00,32.7,29.8,29.82,SSE,163,0.0,1.0,89,0.00,,,0.21,Wunderground v.1.15,2013-02-12 23:45:00,
2013-02-12 18:50:00,32.7,29.8,29.82,WSW,243,1.0,1.0,89,0.00,,,0.21,Wunderground v.1.15,2013-02-12 23:50:00,
2013-02-12 19:00:00,32.7,30.1,29.83,WSW,243,0.0,0.0,90,0.00,,,0.21,Wunderground v.1.15,2013-02-13 00:00:00,
2013-02-12 19:05:00,32.5,29.6,29.83,WSW,243,0.0,0.0,89,0.00,,,0.21,Wunderground v.1.15,2013-02-13 00:05:00,
2013-02-12 19:15:00,32.5,29.9,29.85,WSW,243,0.0,0.0,90,0.00,,,0.21,Wunderground v.1.15,2013-02-13 00:15:00,
2013-02-12 19:20:00,32.4,30.1,29.86,WSW,243,0.0,0.0,91,0.00,,,0.21,Wunderground v.1.15,2013-02-13 00:20:00,
2013-02-12 19:25:00,32.4,30.3,29.86,SW,229,0.0,1.0,92,0.00,,,0.21,Wunderground v.1.15,2013-02-13 00:25:00,
2013-02-12 19:35:00,32.2,30.1,29.86,SSW,196,1.0,2.0,92,0.00,,,0.21,Wunderground v.1.15,2013-02-13 00:35:00,
2013-02-12 19:40:00,32.2,30.1,29.86,SSW,196,1.0,1.0,92,0.00,,,0.21,Wunderground v.1.15,2013-02-13 00:40:00,
2013-02-12 19:45:00,32.2,29.9,29.86,SSW,196,1.0,1.0,91,0.00,,,0.21,Wunderground v.1.15,2013-02-13 00:45:00,
2013-02-12 19:55:00,32.2,29.6,29.88,SE,138,1.0,4.0,90,0.00,,,0.21,Wunderground v.1.15,2013-02-13 00:55:00,
2013-02-12 20:00:00,32.5,29.1,29.88,North,9,2.0,2.0,87,0.00,,,0.21,Wunderground v.1.15,2013-02-13 01:00:00,
2013-02-12 20:05:00,32.8,28.5,29.88,NW,325,2.0,3.0,84,0.00,,,0.21,Wunderground v.1.15,2013-02-13 01:05:00,
2013-02-12 20:15:00,33.5,27.7,29.90,East,92,2.0,2.0,79,0.00,,,0.21,Wunderground v.1.15,2013-02-13 01:15:00,
2013-02-12 20:20:00,33.8,28.0,29.90,West,262,2.0,3.0,79,0.00,,,0.21,Wunderground v.1.15,2013-02-13 01:20:00,
2013-02-12 20:25:00,34.0,26.9,29.90,SW,236,3.0,6.0,75,0.00,,,0.21,Wunderground v.1.15,2013-02-13 01:25:00,
2013-02-12 20:35:00,34.1,28.0,29.90,SW,219,3.0,6.0,78,0.00,,,0.21,Wunderground v.1.15,2013-02-13 01:35:00,
2013-02-12 20:40:00,34.1,26.3,29.91,SW,236,3.0,3.0,73,0.00,,,0.21,Wunderground v.1.15,2013-02-13 01:40:00,
2013-02-12 20:45:00,34.1,26.3,29.91,NNW,338,2.0,3.0,73,0.00,,,0.22,Wunderground v.1.15,2013-02-13 01:45:00,
2013-02-12 20:50:00,34.3,26.5,29.90,NE,36,1.0,1.0,73,0.00,,,0.22,Wunderground v.1.15,2013-02-13 01:50:00,
2013-02-12 21:00:00,34.1,27.3,29.90,ENE,72,0.0,0.0,76,0.00,,,0.22,Wunderground v.1.15,2013-02-13 02:00:00,
2013-02-12 21:05:00,34.0,26.6,29.90,ENE,72,0.0,0.0,74,0.00,,,0.22,Wunderground v.1.15,2013-02-13 02:05:00,
2013-02-12 21:15:00,34.0,25.9,29.89,South,169,1.0,1.0,72,0.00,,,0.22,Wunderground v.1.15,2013-02-13 02:15:00,
2013-02-12 21:20:00,34.0,26.6,29.89,NNW,347,1.0,1.0,74,0.00,,,0.22,Wunderground v.1.15,2013-02-13 02:20:00,
2013-02-12 21:25:00,34.0,27.2,29.88,NNW,347,0.0,1.0,76,0.00,,,0.22,Wunderground v.1.15,2013-02-13 02:25:00,
2013-02-12 21:30:00,34.0,26.9,29.88,NNW,347,0.0,0.0,75,0.00,,,0.22,Wunderground v.1.15,2013-02-13 02:30:00,
2013-02-12 21:35:00,33.8,26.4,29.88,North,355,0.0,0.0,74,0.00,,,0.22,Wunderground v.1.15,2013-02-13 02:35:00,
2013-02-12 21:45:00,33.7,28.2,29.88,SSW,205,0.0,0.0,80,0.00,,,0.22,Wunderground v.1.15,2013-02-13 02:45:00,
2013-02-12 21:50:00,33.5,26.4,29.87,SE,144,0.0,3.0,75,0.00,,,0.22,Wunderground v.1.15,2013-02-13 02:50:00,
2013-02-12 21:55:00,33.4,26.6,29.87,ESE,110,1.0,3.0,76,0.00,,,0.22,Wunderground v.1.15,2013-02-13 02:55:00,
2013-02-12 22:05:00,33.2,25.8,29.88,North,355,1.0,2.0,74,0.00,,,0.22,Wunderground v.1.15,2013-02-13 03:05:00,
2013-02-12 22:10:00,33.2,26.1,29.88,West,269,1.0,1.0,75,0.00,,,0.22,Wunderground v.1.15,2013-02-13 03:10:00,
2013-02-12 22:15:00,33.4,25.3,29.88,NNW,346,1.0,1.0,72,0.00,,,0.22,Wunderground v.1.15,2013-02-13 03:15:00,
2013-02-12 22:25:00,33.4,26.0,29.87,SSW,203,1.0,2.0,74,0.00,,,0.22,Wunderground v.1.15,2013-02-13 03:25:00,
2013-02-12 22:30:00,33.4,24.7,29.87,NW,313,2.0,2.0,70,0.00,,,0.22,Wunderground v.1.15,2013-02-13 03:30:00,
2013-02-12 22:35:00,33.5,26.4,29.87,South,180,2.0,2.0,75,0.00,,,0.22,Wunderground v.1.15,2013-02-13 03:35:00,
2013-02-12 22:45:00,33.5,25.8,29.86,ESE,119,1.0,2.0,73,0.00,,,0.22,Wunderground v.1.15,2013-02-13 03:45:00,
2013-02-12 22:50:00,33.4,26.6,29.86,SW,230,1.0,2.0,76,0.00,,,0.22,Wunderground v.1.15,2013-02-13 03:50:00,
2013-02-12 22:55:00,33.2,25.1,29.86,SW,219,1.0,2.0,72,0.00,,,0.22,Wunderground v.1.15,2013-02-13 03:55:00,
2013-02-12 23:05:00,33.1,25.4,29.86,South,176,1.0,1.0,73,0.00,,,0.22,Wunderground v.1.15,2013-02-13 04:05:00,
2013-02-12 23:10:00,33.1,24.4,29.86,South,182,1.0,1.0,70,0.00,,,0.22,Wunderground v.1.15,2013-02-13 04:10:00,
2013-02-12 23:15:00,33.1,25.1,29.86,SE,128,1.0,1.0,72,0.00,,,0.22,Wunderground v.1.15,2013-02-13 04:15:00,
2013-02-12 23:25:00,32.8,25.7,29.86,South,171,1.0,1.0,75,0.00,,,0.22,Wunderground v.1.15,2013-02-13 04:25:00,
2013-02-12 23:30:00,32.7,26.0,29.87,SSE,162,1.0,1.0,76,0.00,,,0.22,Wunderground v.1.15,2013-02-13 04:30:00,
2013-02-12 23:35:00,32.5,24.5,29.87,SSE,161,1.0,1.0,72,0.00,,,0.22,Wunderground v.1.15,2013-02-13 04:35:00,
2013-02-12 23:45:00,32.5,24.1,29.86,SW,223,1.0,1.0,71,0.00,,,0.22,Wunderground v.1.15,2013-02-13 04:45:00,
2013-02-12 23:50:00,32.7,26.0,29.87,SW,231,0.0,2.0,76,0.00,,,0.22,Wunderground v.1.15,2013-02-13 04:50:00,
2013-02-12 23:55:00,32.5,25.5,29.87,SW,231,0.0,2.0,75,0.00,,,0.22,Wunderground v.1.15,2013-02-13 04:55:00,